Time;durP1;ratioP1;P1;durP2;ratioP2;P2;SDS_P1;SDS_P2;PMS_P1;PMS_P2;Temp;Humidity;BMP_temperature;BMP_pressure;BME280_temperature;BME280_humidity;BME280_pressure;Samples;Min_cycle;Max_cycle;Signal;HPM_P1;HPM_P2
2023/11/21 00:02:27;;;;;;;7.13;1.33;;;;;;;;;;5815350;28;20485;-70
2023/11/21 00:05:18;;;;;;;1.13;1.02;;;;;;;;;;5815659;28;20053;-71
2023/11/21 00:08:08;;;;;;;1.42;1.20;;;;;;;;;;5799124;28;20057;-71
2023/11/21 00:11:00;;;;;;;1.50;1.05;;;;;;;;;;5815914;28;20104;-70
2023/11/21 00:13:51;;;;;;;3.00;1.35;;;;;;;;;;5815358;28;20140;-70
2023/11/21 00:16:42;;;;;;;0.93;0.80;;;;;;;;;;5815267;28;20180;-71
2023/11/21 00:19:34;;;;;;;4.03;1.52;;;;;;;;;;5814969;28;20073;-71
2023/11/21 00:22:25;;;;;;;0.95;0.93;;;;;;;;;;5799513;28;20046;-71
2023/11/21 00:25:18;;;;;;;2.40;1.80;;;;;;;;;;5815033;28;20050;-71
2023/11/21 00:28:09;;;;;;;3.78;1.48;;;;;;;;;;5816306;28;20057;-71
2023/11/21 00:30:59;;;;;;;3.65;1.30;;;;;;;;;;5815565;28;20126;-70
2023/11/21 00:33:50;;;;;;;1.60;1.27;;;;;;;;;;5816448;28;20415;-70
2023/11/21 00:36:41;;;;;;;1.63;1.35;;;;;;;;;;5816466;28;20137;-70
2023/11/21 00:39:32;;;;;;;7.57;1.88;;;;;;;;;;5814972;28;20050;-71
2023/11/21 00:42:23;;;;;;;1.48;1.38;;;;;;;;;;5814606;28;20047;-70
2023/11/21 00:45:14;;;;;;;3.00;2.70;;;;;;;;;;5799048;28;20053;-71
2023/11/21 00:48:05;;;;;;;1.42;1.10;;;;;;;;;;5798972;28;20050;-70
2023/11/21 00:50:56;;;;;;;2.45;1.58;;;;;;;;;;5815027;28;20042;-70
2023/11/21 00:53:48;;;;;;;2.40;1.60;;;;;;;;;;5815036;28;20054;-70
2023/11/21 00:56:39;;;;;;;1.95;1.48;;;;;;;;;;5814425;28;20039;-71
2023/11/21 00:59:30;;;;;;;2.67;1.65;;;;;;;;;;5814754;28;20046;-71
2023/11/21 01:02:21;;;;;;;1.60;1.50;;;;;;;;;;5821504;28;20061;-71
2023/11/21 01:05:13;;;;;;;3.15;1.70;;;;;;;;;;5833335;28;20135;-71
2023/11/21 01:08:04;;;;;;;3.40;2.58;;;;;;;;;;5838774;28;20548;-71
2023/11/21 01:10:54;;;;;;;3.30;1.77;;;;;;;;;;5805955;28;20042;-70
2023/11/21 01:13:45;;;;;;;1.50;0.95;;;;;;;;;;5842944;28;20053;-70
2023/11/21 01:16:36;;;;;;;0.70;0.70;;;;;;;;;;5840595;28;20064;-71
2023/11/21 01:19:28;;;;;;;0.68;0.68;;;;;;;;;;5825751;28;20412;-70
2023/11/21 01:22:25;;;;;;;1.58;1.20;;;;;;;;;;5841605;28;20137;-70
2023/11/21 01:25:16;;;;;;;0.60;0.60;;;;;;;;;;5842854;28;20149;-70
2023/11/21 01:28:07;;;;;;;0.22;0.22;;;;;;;;;;5825488;28;20049;-71
2023/11/21 01:30:58;;;;;;;2.58;0.90;;;;;;;;;;5843110;28;20064;-70
2023/11/21 01:33:49;;;;;;;0.20;0.20;;;;;;;;;;5842594;28;20049;-70
2023/11/21 01:36:40;;;;;;;0.82;0.70;;;;;;;;;;5842681;28;20491;-71
2023/11/21 01:39:31;;;;;;;0.52;0.52;;;;;;;;;;5841139;28;20403;-71
2023/11/21 01:42:22;;;;;;;0.43;0.43;;;;;;;;;;5841395;28;20137;-70
2023/11/21 01:45:13;;;;;;;0.70;0.57;;;;;;;;;;5825003;28;20050;-71
2023/11/21 01:48:06;;;;;;;1.70;1.52;;;;;;;;;;5842278;28;20042;-71
2023/11/21 01:50:58;;;;;;;0.38;0.38;;;;;;;;;;5842589;28;20074;-71
2023/11/21 01:53:50;;;;;;;0.85;0.77;;;;;;;;;;5840660;28;20054;-71
2023/11/21 01:56:41;;;;;;;1.65;0.75;;;;;;;;;;5824811;28;20046;-71
2023/11/21 01:59:37;;;;;;;0.28;0.28;;;;;;;;;;5823614;28;20052;-71
2023/11/21 02:02:28;;;;;;;0.88;0.70;;;;;;;;;;5824720;28;20042;-71
2023/11/21 02:05:22;;;;;;;1.17;0.80;;;;;;;;;;5840861;28;20054;-72
2023/11/21 02:08:12;;;;;;;0.35;0.35;;;;;;;;;;5840455;28;20077;-71
2023/11/21 02:11:03;;;;;;;1.65;0.40;;;;;;;;;;5841928;28;20129;-72
2023/11/21 02:13:54;;;;;;;0.75;0.75;;;;;;;;;;5840971;28;20053;-71
2023/11/21 02:16:47;;;;;;;1.10;1.00;;;;;;;;;;5840776;28;20070;-71
2023/11/21 02:19:38;;;;;;;0.55;0.55;;;;;;;;;;5824404;28;20322;-71
2023/11/21 02:22:33;;;;;;;1.08;0.95;;;;;;;;;;5839944;28;20061;-71
2023/11/21 02:25:32;;;;;;;0.70;0.70;;;;;;;;;;5824487;28;20120;-71
2023/11/21 02:28:25;;;;;;;1.75;0.70;;;;;;;;;;5824436;28;20491;-71
2023/11/21 02:31:18;;;;;;;1.33;1.00;;;;;;;;;;5840310;28;20062;-71
2023/11/21 02:34:09;;;;;;;0.73;0.63;;;;;;;;;;5840057;28;20041;-71
2023/11/21 02:37:00;;;;;;;1.98;1.20;;;;;;;;;;5840236;28;20045;-71
2023/11/21 02:39:51;;;;;;;0.32;0.32;;;;;;;;;;5840502;28;20050;-70
2023/11/21 02:42:42;;;;;;;1.10;0.73;;;;;;;;;;5840254;28;20046;-71
2023/11/21 02:45:32;;;;;;;0.88;0.57;;;;;;;;;;5840941;28;20411;-71
2023/11/21 02:48:26;;;;;;;0.88;0.82;;;;;;;;;;5841041;28;20050;-71
2023/11/21 02:51:17;;;;;;;0.73;0.70;;;;;;;;;;5840898;28;20054;-71
2023/11/21 02:54:08;;;;;;;0.80;0.77;;;;;;;;;;5840955;28;20647;-71
2023/11/21 02:56:59;;;;;;;2.05;1.42;;;;;;;;;;5840172;28;20121;-71
2023/11/21 02:59:50;;;;;;;2.17;1.20;;;;;;;;;;5840070;28;20590;-71
2023/11/21 03:02:42;;;;;;;8.30;1.60;;;;;;;;;;5840682;28;20050;-70
2023/11/21 03:05:35;;;;;;;0.57;0.57;;;;;;;;;;5840546;28;20050;-71
2023/11/21 03:08:26;;;;;;;0.65;0.65;;;;;;;;;;5839379;28;20046;-70
2023/11/21 03:11:17;;;;;;;1.60;1.15;;;;;;;;;;5839387;28;20525;-71
2023/11/21 03:14:07;;;;;;;3.13;1.08;;;;;;;;;;5839428;28;20054;-71
2023/11/21 03:16:58;;;;;;;1.30;1.10;;;;;;;;;;5840892;28;20056;-71
2023/11/21 03:19:49;;;;;;;0.65;0.65;;;;;;;;;;5840650;28;20415;-71
2023/11/21 03:22:40;;;;;;;0.70;0.70;;;;;;;;;;5837977;28;20150;-71
2023/11/21 03:25:31;;;;;;;1.88;1.23;;;;;;;;;;5838973;28;20100;-71
2023/11/21 03:28:21;;;;;;;2.30;1.05;;;;;;;;;;5838917;28;20046;-72
2023/11/21 03:31:12;;;;;;;0.57;0.57;;;;;;;;;;5838960;28;20050;-72
2023/11/21 03:34:03;;;;;;;1.67;1.17;;;;;;;;;;5838144;28;20060;-72
2023/11/21 03:36:54;;;;;;;1.27;1.10;;;;;;;;;;5839490;28;20081;-71
2023/11/21 03:39:45;;;;;;;0.43;0.43;;;;;;;;;;5840326;28;20050;-71
2023/11/21 03:42:36;;;;;;;0.10;0.10;;;;;;;;;;5838654;28;20050;-72
2023/11/21 03:45:27;;;;;;;0.52;0.38;;;;;;;;;;5838864;28;20077;-71
2023/11/21 03:48:18;;;;;;;0.52;0.52;;;;;;;;;;5822427;28;20049;-71
2023/11/21 03:51:09;;;;;;;0.75;0.75;;;;;;;;;;5838474;28;20046;-72
2023/11/21 03:53:59;;;;;;;0.60;0.60;;;;;;;;;;5838897;28;20050;-71
2023/11/21 03:56:50;;;;;;;0.35;0.35;;;;;;;;;;5838687;28;20049;-71
2023/11/21 03:59:42;;;;;;;0.68;0.68;;;;;;;;;;5829589;28;20053;-71
2023/11/21 04:02:33;;;;;;;0.28;0.28;;;;;;;;;;5827828;28;20050;-71
2023/11/21 04:05:24;;;;;;;1.75;0.77;;;;;;;;;;5838380;28;20046;-71
2023/11/21 04:08:15;;;;;;;0.40;0.40;;;;;;;;;;5821752;28;20054;-71
2023/11/21 04:11:07;;;;;;;0.40;0.40;;;;;;;;;;5822288;28;20050;-72
2023/11/21 04:13:59;;;;;;;0.88;0.70;;;;;;;;;;5839757;28;20053;-71
2023/11/21 04:16:49;;;;;;;0.90;0.80;;;;;;;;;;5838543;28;20515;-71
2023/11/21 04:19:40;;;;;;;0.50;0.32;;;;;;;;;;5838090;28;20073;-71
2023/11/21 04:22:31;;;;;;;0.55;0.55;;;;;;;;;;5839252;28;20053;-72
2023/11/21 04:25:23;;;;;;;1.40;0.93;;;;;;;;;;5838029;28;20042;-71
2023/11/21 04:28:14;;;;;;;0.45;0.40;;;;;;;;;;5839477;28;20046;-71
2023/11/21 04:31:05;;;;;;;1.05;0.95;;;;;;;;;;5837821;28;20062;-71
2023/11/21 04:33:56;;;;;;;1.35;1.25;;;;;;;;;;5838739;28;20128;-70
2023/11/21 04:36:46;;;;;;;0.43;0.43;;;;;;;;;;5838407;28;20046;-71
2023/11/21 04:39:37;;;;;;;0.68;0.50;;;;;;;;;;5837692;28;20076;-70
2023/11/21 04:42:29;;;;;;;3.22;0.85;;;;;;;;;;5836774;28;20447;-70
2023/11/21 04:45:20;;;;;;;0.70;0.70;;;;;;;;;;5838688;28;20054;-70
2023/11/21 04:48:11;;;;;;;0.70;0.70;;;;;;;;;;5844049;28;20050;-71
2023/11/21 04:51:04;;;;;;;0.50;0.50;;;;;;;;;;5825937;28;20119;-71
2023/11/21 04:53:54;;;;;;;1.60;0.80;;;;;;;;;;5844123;28;20056;-70
2023/11/21 04:56:45;;;;;;;0.75;0.75;;;;;;;;;;5826088;28;20491;-71
2023/11/21 04:59:36;;;;;;;0.75;0.75;;;;;;;;;;5842360;28;20491;-70
2023/11/21 05:02:27;;;;;;;0.57;0.57;;;;;;;;;;5842184;28;20052;-71
2023/11/21 05:05:25;;;;;;;0.43;0.43;;;;;;;;;;5843496;28;20046;-71
2023/11/21 05:08:17;;;;;;;0.88;0.63;;;;;;;;;;5842158;28;20053;-70
2023/11/21 05:11:10;;;;;;;0.95;0.80;;;;;;;;;;5842170;28;20078;-71
2023/11/21 05:14:01;;;;;;;0.88;0.88;;;;;;;;;;5830538;28;20114;-71
2023/11/21 05:16:52;;;;;;;2.03;0.75;;;;;;;;;;5818318;28;20141;-71
2023/11/21 05:19:45;;;;;;;0.80;0.55;;;;;;;;;;5843244;28;20052;-71
2023/11/21 05:22:41;;;;;;;2.70;0.93;;;;;;;;;;5842050;28;20444;-71
2023/11/21 05:25:33;;;;;;;0.60;0.60;;;;;;;;;;5841749;28;20121;-70
2023/11/21 05:28:27;;;;;;;0.30;0.30;;;;;;;;;;5841891;28;20050;-71
2023/11/21 05:31:18;;;;;;;0.85;0.75;;;;;;;;;;5841647;28;20184;-70
2023/11/21 05:34:09;;;;;;;3.53;1.52;;;;;;;;;;5841582;28;20128;-71
2023/11/21 05:36:59;;;;;;;0.32;0.32;;;;;;;;;;5843127;28;20057;-70
2023/11/21 05:39:50;;;;;;;0.52;0.52;;;;;;;;;;5841608;28;20046;-70
2023/11/21 05:42:43;;;;;;;0.77;0.77;;;;;;;;;;5841399;28;20045;-71
2023/11/21 05:45:34;;;;;;;0.52;0.50;;;;;;;;;;5841131;28;20046;-70
2023/11/21 05:48:25;;;;;;;0.75;0.75;;;;;;;;;;5841260;28;20046;-71
2023/11/21 05:51:17;;;;;;;0.28;0.28;;;;;;;;;;5842187;28;20427;-70
2023/11/21 05:54:08;;;;;;;1.10;0.70;;;;;;;;;;5825276;28;20052;-70
2023/11/21 05:57:00;;;;;;;0.82;0.82;;;;;;;;;;5840341;28;20415;-70
2023/11/21 05:59:51;;;;;;;2.53;1.33;;;;;;;;;;5841220;28;20038;-70
2023/11/21 06:02:42;;;;;;;0.63;0.63;;;;;;;;;;5841237;28;20048;-71
2023/11/21 06:05:33;;;;;;;0.30;0.30;;;;;;;;;;5840760;28;20044;-70
2023/11/21 06:08:24;;;;;;;0.40;0.40;;;;;;;;;;5840561;28;20404;-71
2023/11/21 06:11:16;;;;;;;0.98;0.63;;;;;;;;;;5840769;28;20073;-71
2023/11/21 06:14:09;;;;;;;0.85;0.82;;;;;;;;;;5840313;28;20041;-71
2023/11/21 06:17:00;;;;;;;1.38;1.20;;;;;;;;;;5841277;28;20063;-71
2023/11/21 06:19:52;;;;;;;3.20;1.92;;;;;;;;;;5840836;28;20048;-71
2023/11/21 06:22:46;;;;;;;1.50;1.27;;;;;;;;;;5840417;28;20045;-71
2023/11/21 06:25:37;;;;;;;4.75;1.15;;;;;;;;;;5840409;28;20443;-71
2023/11/21 06:28:28;;;;;;;1.38;0.98;;;;;;;;;;5824227;28;20050;-71
2023/11/21 06:31:21;;;;;;;0.65;0.57;;;;;;;;;;5840132;28;20056;-71
2023/11/21 06:34:13;;;;;;;1.23;0.80;;;;;;;;;;5841459;28;20467;-71
2023/11/21 06:37:04;;;;;;;0.77;0.75;;;;;;;;;;5840013;28;20045;-71
2023/11/21 06:39:58;;;;;;;2.88;1.05;;;;;;;;;;5840398;28;20046;-71
2023/11/21 06:42:49;;;;;;;0.73;0.73;;;;;;;;;;5840088;28;20495;-71
2023/11/21 06:45:41;;;;;;;1.13;1.02;;;;;;;;;;5839884;28;20103;-71
2023/11/21 06:48:31;;;;;;;1.52;1.42;;;;;;;;;;5839406;28;20042;-71
2023/11/21 06:51:22;;;;;;;1.70;1.42;;;;;;;;;;5839555;28;20135;-71
2023/11/21 06:54:13;;;;;;;2.90;1.05;;;;;;;;;;5839699;28;20068;-71
2023/11/21 06:57:04;;;;;;;2.50;1.10;;;;;;;;;;5823338;28;20049;-71
2023/11/21 06:59:57;;;;;;;1.95;1.15;;;;;;;;;;5840189;28;20049;-71
2023/11/21 07:02:48;;;;;;;4.63;1.65;;;;;;;;;;5841060;28;20053;-71
2023/11/21 07:05:39;;;;;;;1.70;1.50;;;;;;;;;;5840904;28;20093;-71
2023/11/21 07:08:30;;;;;;;2.08;1.88;;;;;;;;;;5822917;28;20423;-71
2023/11/21 07:11:21;;;;;;;1.92;1.08;;;;;;;;;;5838577;28;20056;-71
2023/11/21 07:14:12;;;;;;;4.97;1.70;;;;;;;;;;5839311;28;20060;-71
2023/11/21 07:17:03;;;;;;;1.27;1.17;;;;;;;;;;5823162;28;20045;-72
2023/11/21 07:19:55;;;;;;;0.75;0.75;;;;;;;;;;5823506;28;20046;-71
2023/11/21 07:22:46;;;;;;;3.20;1.35;;;;;;;;;;5839439;28;20061;-71
2023/11/21 07:25:37;;;;;;;0.95;0.80;;;;;;;;;;5822767;28;20053;-71
2023/11/21 07:28:27;;;;;;;1.65;1.25;;;;;;;;;;5839296;28;20180;-71
2023/11/21 07:31:19;;;;;;;1.67;1.55;;;;;;;;;;5840052;28;20050;-71
2023/11/21 07:34:13;;;;;;;1.60;1.02;;;;;;;;;;5838931;28;20060;-71
2023/11/21 07:37:03;;;;;;;2.17;1.65;;;;;;;;;;5838773;28;20049;-71
2023/11/21 07:39:56;;;;;;;1.38;1.27;;;;;;;;;;5822910;28;20072;-71
2023/11/21 07:42:48;;;;;;;1.23;1.00;;;;;;;;;;5822931;28;20038;-70
2023/11/21 07:45:39;;;;;;;3.90;1.65;;;;;;;;;;5838618;28;20499;-71
2023/11/21 07:48:34;;;;;;;1.45;1.35;;;;;;;;;;5839944;28;20500;-71
2023/11/21 07:51:24;;;;;;;1.40;1.23;;;;;;;;;;5822212;28;20048;-71
2023/11/21 07:54:16;;;;;;;0.70;0.70;;;;;;;;;;5838372;28;20068;-71
2023/11/21 07:57:07;;;;;;;2.15;1.63;;;;;;;;;;5838639;28;20053;-71
2023/11/21 07:59:58;;;;;;;4.07;1.52;;;;;;;;;;5838856;28;20048;-71
2023/11/21 08:02:49;;;;;;;1.80;1.50;;;;;;;;;;5838471;28;20049;-71
2023/11/21 08:05:40;;;;;;;3.25;1.95;;;;;;;;;;5839667;28;20075;-71
2023/11/21 08:08:32;;;;;;;2.20;1.83;;;;;;;;;;5838563;28;20121;-71
2023/11/21 08:11:22;;;;;;;2.85;2.03;;;;;;;;;;5839370;28;20053;-71
2023/11/21 08:14:13;;;;;;;5.75;0.75;;;;;;;;;;5822034;28;20495;-72
2023/11/21 08:17:04;;;;;;;4.10;1.85;;;;;;;;;;5854710;28;20410;-72
2023/11/21 08:19:58;;;;;;;2.38;1.35;;;;;;;;;;5822426;28;20120;-71
2023/11/21 08:22:48;;;;;;;1.58;1.35;;;;;;;;;;5838462;28;20049;-71
2023/11/21 08:25:39;;;;;;;2.20;1.52;;;;;;;;;;5837725;28;20046;-72
2023/11/21 08:28:30;;;;;;;3.60;1.50;;;;;;;;;;5837759;28;20508;-72
2023/11/21 08:31:28;;;;;;;2.30;1.65;;;;;;;;;;5837675;28;20125;-72
2023/11/21 08:34:19;;;;;;;1.70;1.52;;;;;;;;;;5838133;28;20116;-72
2023/11/21 08:37:10;;;;;;;0.95;0.85;;;;;;;;;;5837956;28;20041;-72
2023/11/21 08:40:02;;;;;;;5.80;1.17;;;;;;;;;;5839284;28;20042;-72
2023/11/21 08:42:52;;;;;;;1.42;1.17;;;;;;;;;;5839608;28;20100;-72
2023/11/21 08:45:45;;;;;;;1.10;1.02;;;;;;;;;;5839001;28;20049;-71
2023/11/21 08:48:36;;;;;;;1.83;1.73;;;;;;;;;;5837709;28;20046;-71
2023/11/21 08:51:27;;;;;;;1.63;1.45;;;;;;;;;;5838805;28;20593;-71
2023/11/21 08:54:18;;;;;;;1.75;1.63;;;;;;;;;;5839002;28;20498;-72
2023/11/21 08:57:09;;;;;;;2.15;1.95;;;;;;;;;;5837706;28;20407;-72
2023/11/21 09:00:00;;;;;;;1.98;1.88;;;;;;;;;;5821587;28;20053;-72
2023/11/21 09:02:50;;;;;;;4.53;1.80;;;;;;;;;;5837794;28;20049;-71
2023/11/21 09:05:41;;;;;;;2.00;1.55;;;;;;;;;;5838786;28;20053;-71
2023/11/21 09:08:32;;;;;;;1.55;1.45;;;;;;;;;;5828512;28;20046;-71
2023/11/21 09:11:25;;;;;;;2.13;1.90;;;;;;;;;;5833346;28;20041;-71
2023/11/21 09:14:17;;;;;;;1.70;1.40;;;;;;;;;;5837337;28;20164;-71
2023/11/21 09:17:11;;;;;;;2.58;1.75;;;;;;;;;;5837561;28;20053;-71
2023/11/21 09:20:05;;;;;;;5.20;1.83;;;;;;;;;;5837480;28;20559;-71
2023/11/21 09:22:56;;;;;;;2.15;1.50;;;;;;;;;;5838539;28;20046;-71
2023/11/21 09:25:49;;;;;;;2.97;1.52;;;;;;;;;;5838602;28;20173;-71
2023/11/21 09:28:42;;;;;;;1.42;1.33;;;;;;;;;;5837448;28;20615;-71
2023/11/21 09:31:33;;;;;;;2.45;1.63;;;;;;;;;;5838575;28;20133;-71
2023/11/21 09:34:25;;;;;;;3.55;1.50;;;;;;;;;;5841094;28;20523;-71
2023/11/21 09:37:17;;;;;;;5.63;1.13;;;;;;;;;;5825290;28;20050;-71
2023/11/21 09:40:13;;;;;;;2.50;2.20;;;;;;;;;;5825295;28;20609;-71
2023/11/21 09:43:17;;;;;;;2.83;1.77;;;;;;;;;;5841544;28;20054;-71
2023/11/21 09:46:12;;;;;;;1.85;1.55;;;;;;;;;;5841287;28;20042;-71
2023/11/21 09:49:05;;;;;;;2.05;1.85;;;;;;;;;;5842285;28;20081;-71
2023/11/21 09:51:58;;;;;;;3.13;1.77;;;;;;;;;;5825713;28;20052;-70
2023/11/21 09:54:51;;;;;;;1.88;1.60;;;;;;;;;;5841137;28;20521;-71
2023/11/21 09:57:42;;;;;;;1.73;1.63;;;;;;;;;;5840755;28;20046;-71
2023/11/21 10:00:34;;;;;;;0.90;0.75;;;;;;;;;;5840946;28;20041;-70
2023/11/21 10:03:25;;;;;;;1.40;1.30;;;;;;;;;;5840576;28;20080;-70
2023/11/21 10:06:17;;;;;;;3.13;0.95;;;;;;;;;;5842173;28;20132;-71
2023/11/21 10:09:11;;;;;;;1.23;1.10;;;;;;;;;;5840623;28;20504;-71
2023/11/21 10:12:04;;;;;;;9.18;1.77;;;;;;;;;;5824753;28;20046;-71
2023/11/21 10:14:58;;;;;;;1.65;1.38;;;;;;;;;;5841199;28;20492;-71
2023/11/21 10:17:54;;;;;;;1.45;0.80;;;;;;;;;;5840408;28;20496;-70
2023/11/21 10:20:51;;;;;;;2.78;1.63;;;;;;;;;;5824860;28;20045;-71
2023/11/21 10:23:44;;;;;;;1.17;1.08;;;;;;;;;;5840764;28;20450;-71
2023/11/21 10:26:36;;;;;;;0.95;0.82;;;;;;;;;;5840072;28;20046;-71
2023/11/21 10:29:41;;;;;;;0.80;0.80;;;;;;;;;;5840424;28;20038;-71
2023/11/21 10:32:32;;;;;;;1.73;1.33;;;;;;;;;;5840411;28;20465;-71
2023/11/21 10:35:24;;;;;;;2.30;1.70;;;;;;;;;;5839984;28;20045;-72
2023/11/21 10:38:15;;;;;;;5.15;2.33;;;;;;;;;;5840352;28;20526;-72
2023/11/21 10:41:12;;;;;;;1.08;1.08;;;;;;;;;;5839936;28;20054;-72
2023/11/21 10:44:11;;;;;;;2.20;1.33;;;;;;;;;;5839875;28;20139;-72
2023/11/21 10:47:02;;;;;;;;;;;;;;;;;;5840703;28;20547;-72
2023/11/21 10:49:53;;;;;;;3.05;2.53;;;;;;;;;;5841580;28;20398;-72
2023/11/21 10:52:47;;;;;;;5.47;3.55;;;;;;;;;;5840007;28;20109;-71
2023/11/21 10:55:38;;;;;;;3.03;2.65;;;;;;;;;;5839611;28;20140;-72
2023/11/21 10:58:29;;;;;;;2.58;2.35;;;;;;;;;;5823251;28;20045;-72
2023/11/21 11:01:23;;;;;;;3.13;2.30;;;;;;;;;;5823639;28;20058;-72
2023/11/21 11:04:16;;;;;;;7.07;3.22;;;;;;;;;;5840828;28;20049;-72
2023/11/21 11:07:13;;;;;;;4.95;3.65;;;;;;;;;;5839646;28;20573;-72
2023/11/21 11:10:08;;;;;;;6.55;3.15;;;;;;;;;;5839353;28;20050;-72
2023/11/21 11:12:59;;;;;;;4.38;1.67;;;;;;;;;;5840001;28;20041;-71
2023/11/21 11:15:51;;;;;;;4.47;2.33;;;;;;;;;;5823333;28;20057;-71
2023/11/21 11:18:41;;;;;;;2.05;1.85;;;;;;;;;;5839365;28;20052;-72
2023/11/21 11:22:11;;;;;;;3.83;1.63;;;;;;;;;;5839014;28;20050;-71
2023/11/21 11:25:17;;;;;;;2.38;1.60;;;;;;;;;;5839828;28;20042;-72
2023/11/21 11:28:15;;;;;;;3.13;1.92;;;;;;;;;;5839170;28;20056;-72
2023/11/21 11:31:18;;;;;;;2.92;1.42;;;;;;;;;;5839013;28;20393;-72
2023/11/21 11:34:29;;;;;;;2.78;1.73;;;;;;;;;;5822757;28;20057;-72
2023/11/21 11:37:22;;;;;;;2.20;1.13;;;;;;;;;;5840132;28;20113;-72
2023/11/21 11:40:13;;;;;;;0.88;0.88;;;;;;;;;;5839187;28;20361;-72
2023/11/21 11:43:07;;;;;;;1.17;1.13;;;;;;;;;;5822577;28;20143;-72
2023/11/21 11:45:59;;;;;;;1.92;1.48;;;;;;;;;;5823118;28;20123;-72
2023/11/21 11:49:03;;;;;;;1.00;0.90;;;;;;;;;;5839032;28;20357;-72
2023/11/21 11:52:35;;;;;;;1.25;1.15;;;;;;;;;;5838651;28;20041;-72
2023/11/21 11:55:30;;;;;;;2.97;2.08;;;;;;;;;;5837874;28;20056;-72
2023/11/21 11:58:38;;;;;;;4.13;2.25;;;;;;;;;;5838259;28;20068;-72
2023/11/21 12:01:32;;;;;;;4.30;2.63;;;;;;;;;;5822277;28;20042;-72
2023/11/21 12:04:24;;;;;;;2.30;1.60;;;;;;;;;;5838385;28;20121;-72
2023/11/21 12:07:15;;;;;;;1.30;0.93;;;;;;;;;;5839984;28;20053;-72
2023/11/21 12:10:06;;;;;;;1.15;1.00;;;;;;;;;;5838188;28;20423;-72
2023/11/21 12:13:02;;;;;;;0.57;0.57;;;;;;;;;;5838792;28;20050;-71
2023/11/21 12:15:54;;;;;;;1.05;0.95;;;;;;;;;;5838377;28;20500;-72
2023/11/21 12:18:46;;;;;;;1.85;1.60;;;;;;;;;;5838298;28;20041;-72
2023/11/21 12:21:36;;;;;;;3.40;2.72;;;;;;;;;;5837780;28;20046;-72
2023/11/21 12:24:28;;;;;;;0.73;0.70;;;;;;;;;;5837734;28;20052;-72
2023/11/21 12:27:21;;;;;;;1.05;0.70;;;;;;;;;;5838153;28;20070;-72
2023/11/21 12:30:13;;;;;;;1.38;0.88;;;;;;;;;;5837784;28;20057;-72
2023/11/21 12:33:06;;;;;;;1.48;0.88;;;;;;;;;;5839488;28;20397;-72
2023/11/21 12:35:58;;;;;;;1.92;1.25;;;;;;;;;;5839596;28;20319;-72
2023/11/21 12:38:49;;;;;;;2.85;1.65;;;;;;;;;;5821893;28;20886;-72
2023/11/21 12:41:40;;;;;;;2.42;1.45;;;;;;;;;;5837881;28;20041;-72
2023/11/21 12:44:31;;;;;;;3.20;1.55;;;;;;;;;;5837756;28;20415;-72
2023/11/21 12:47:22;;;;;;;1.83;1.23;;;;;;;;;;5839226;28;20098;-72
2023/11/21 12:50:16;;;;;;;5.90;2.20;;;;;;;;;;5839005;28;20056;-72
2023/11/21 12:53:12;;;;;;;3.42;1.08;;;;;;;;;;5839074;28;20045;-72
2023/11/21 12:56:11;;;;;;;5.03;1.80;;;;;;;;;;5821780;28;20046;-72
2023/11/21 12:59:04;;;;;;;4.10;2.50;;;;;;;;;;5821118;28;20045;-72
2023/11/21 13:01:58;;;;;;;3.78;1.55;;;;;;;;;;5839560;28;20054;-71
2023/11/21 13:04:53;;;;;;;8.50;5.22;;;;;;;;;;5822134;28;20057;-71
2023/11/21 13:07:48;;;;;;;14.45;6.93;;;;;;;;;;5839067;28;20042;-71
2023/11/21 13:10:43;;;;;;;37.55;18.52;;;;;;;;;;5842480;28;20444;-71
2023/11/21 13:13:34;;;;;;;7.18;4.35;;;;;;;;;;5842110;28;20049;-71
2023/11/21 13:16:25;;;;;;;26.58;12.80;;;;;;;;;;5841703;28;20458;-71
2023/11/21 13:19:16;;;;;;;15.93;10.55;;;;;;;;;;5841393;28;20053;-71
2023/11/21 13:22:10;;;;;;;15.98;10.23;;;;;;;;;;5822207;28;20057;-72
2023/11/21 13:25:07;;;;;;;4.47;2.92;;;;;;;;;;5821619;28;20401;-72
2023/11/21 13:27:58;;;;;;;9.20;6.35;;;;;;;;;;5804289;28;20189;-71
2023/11/21 13:30:52;;;;;;;3.03;2.75;;;;;;;;;;5810374;28;20050;-71
2023/11/21 13:33:49;;;;;;;4.65;2.72;;;;;;;;;;5834608;28;20121;-71
2023/11/21 13:36:45;;;;;;;3.55;2.97;;;;;;;;;;5805480;28;20046;-71
2023/11/21 13:39:38;;;;;;;4.18;3.67;;;;;;;;;;5818823;28;20121;-71
2023/11/21 13:42:29;;;;;;;7.53;3.35;;;;;;;;;;5818675;28;20046;-71
2023/11/21 13:45:23;;;;;;;7.65;3.88;;;;;;;;;;5800903;28;20069;-71
2023/11/21 13:48:13;;;;;;;4.28;3.13;;;;;;;;;;5818717;28;20056;-71
2023/11/21 13:51:17;;;;;;;4.30;2.78;;;;;;;;;;5829070;28;20052;-71
2023/11/21 13:54:09;;;;;;;4.07;3.25;;;;;;;;;;5831398;28;20051;-71
2023/11/21 13:57:03;;;;;;;6.47;3.45;;;;;;;;;;5840373;28;20568;-71
2023/11/21 13:59:53;;;;;;;4.60;3.15;;;;;;;;;;5839149;28;20045;-71
2023/11/21 14:02:45;;;;;;;14.48;7.65;;;;;;;;;;5818990;28;20042;-71
2023/11/21 14:05:36;;;;;;;21.05;7.28;;;;;;;;;;5844992;28;20046;-71
2023/11/21 14:08:30;;;;;;;19.55;9.07;;;;;;;;;;5829787;28;20057;-71
2023/11/21 14:11:22;;;;;;;5.57;4.05;;;;;;;;;;5836238;28;20056;-71
2023/11/21 14:14:14;;;;;;;13.57;9.10;;;;;;;;;;5832147;28;20140;-71
2023/11/21 14:17:07;;;;;;;11.05;6.90;;;;;;;;;;5826863;28;20738;-71
2023/11/21 14:19:58;;;;;;;12.60;5.00;;;;;;;;;;5841547;28;20057;-71
2023/11/21 14:22:49;;;;;;;9.50;8.02;;;;;;;;;;5838393;28;20046;-71
2023/11/21 14:25:39;;;;;;;12.68;7.50;;;;;;;;;;5829972;28;20085;-71
2023/11/21 14:28:30;;;;;;;15.20;7.95;;;;;;;;;;5816772;28;20480;-71
2023/11/21 14:31:22;;;;;;;18.52;7.75;;;;;;;;;;5831597;28;20077;-71
2023/11/21 14:34:14;;;;;;;11.35;7.07;;;;;;;;;;5834661;28;20123;-71
2023/11/21 14:37:07;;;;;;;9.38;4.90;;;;;;;;;;5837803;28;20038;-71
2023/11/21 14:39:58;;;;;;;26.13;8.95;;;;;;;;;;5841978;28;20468;-71
2023/11/21 14:42:50;;;;;;;27.83;8.82;;;;;;;;;;5840843;28;20518;-71
2023/11/21 14:45:42;;;;;;;22.88;13.05;;;;;;;;;;5821927;28;20053;-71
2023/11/21 14:48:42;;;;;;;41.90;16.63;;;;;;;;;;5834544;28;20041;-72
2023/11/21 14:51:40;;;;;;;25.73;10.82;;;;;;;;;;5839980;28;20052;-72
2023/11/21 14:54:39;;;;;;;12.77;8.02;;;;;;;;;;5833928;28;20046;-72
2023/11/21 14:57:31;;;;;;;8.40;3.95;;;;;;;;;;5816304;28;20219;-71
2023/11/21 15:06:29;;;;;;;27.48;12.20;;;;;;;;;;5816352;28;20046;-72
2023/11/21 15:12:15;;;;;;;13.65;8.73;;;;;;;;;;5835827;28;20049;-72
2023/11/21 15:15:10;;;;;;;14.18;6.70;;;;;;;;;;5828622;28;20104;-72
2023/11/21 15:18:01;;;;;;;16.75;7.00;;;;;;;;;;5816548;28;20462;-72
2023/11/21 15:20:52;;;;;;;24.90;14.48;;;;;;;;;;5826473;28;20061;-71
2023/11/21 15:23:43;;;;;;;25.70;14.75;;;;;;;;;;5839768;28;20112;-72
2023/11/21 15:26:34;;;;;;;31.77;17.98;;;;;;;;;;5833189;28;20433;-72
2023/11/21 15:29:26;;;;;;;23.67;15.50;;;;;;;;;;5822138;28;20053;-72
2023/11/21 15:32:17;;;;;;;33.50;19.60;;;;;;;;;;5838972;28;20208;-72
2023/11/21 15:35:12;;;;;;;20.98;13.77;;;;;;;;;;5829885;28;20050;-72
2023/11/21 15:38:03;;;;;;;20.70;11.43;;;;;;;;;;5817938;28;20050;-72
2023/11/21 15:40:54;;;;;;;17.20;9.98;;;;;;;;;;5816663;28;20441;-72
2023/11/21 15:43:45;;;;;;;18.42;9.55;;;;;;;;;;5815408;28;20072;-72
2023/11/21 15:46:37;;;;;;;17.02;10.38;;;;;;;;;;5835714;28;20090;-72
2023/11/21 15:49:29;;;;;;;12.93;10.05;;;;;;;;;;5823946;28;20630;-72
2023/11/21 15:52:20;;;;;;;16.70;9.75;;;;;;;;;;5831680;28;20053;-72
2023/11/21 15:55:11;;;;;;;23.42;10.40;;;;;;;;;;5814562;28;20058;-72
2023/11/21 15:58:04;;;;;;;18.52;8.15;;;;;;;;;;5802191;28;20073;-72
2023/11/21 16:00:56;;;;;;;11.38;8.23;;;;;;;;;;5827998;28;20133;-72
2023/11/21 16:03:48;;;;;;;14.23;10.07;;;;;;;;;;5835089;28;20053;-72
2023/11/21 16:06:41;;;;;;;19.48;12.48;;;;;;;;;;5816434;28;20046;-72
2023/11/21 16:09:32;;;;;;;21.63;12.65;;;;;;;;;;5821852;28;20049;-72
2023/11/21 16:12:22;;;;;;;13.60;8.43;;;;;;;;;;5831644;28;20046;-72
2023/11/21 16:15:17;;;;;;;12.18;8.05;;;;;;;;;;5827129;28;20061;-72
2023/11/21 16:18:09;;;;;;;13.52;10.63;;;;;;;;;;5824888;28;20407;-73
2023/11/21 16:20:59;;;;;;;17.30;9.02;;;;;;;;;;5829042;28;20522;-72
2023/11/21 16:23:50;;;;;;;16.65;11.93;;;;;;;;;;5838751;28;20080;-72
2023/11/21 16:26:47;;;;;;;22.92;10.25;;;;;;;;;;5837956;28;20411;-72
2023/11/21 16:29:40;;;;;;;14.20;6.50;;;;;;;;;;5824559;28;20381;-72
2023/11/21 16:32:32;;;;;;;10.88;7.25;;;;;;;;;;5825600;28;20049;-72
2023/11/21 16:35:23;;;;;;;28.45;8.80;;;;;;;;;;5830001;28;20045;-72
2023/11/21 16:38:15;;;;;;;13.55;6.82;;;;;;;;;;5800927;28;20046;-72
2023/11/21 16:41:07;;;;;;;21.58;12.73;;;;;;;;;;5816622;28;20078;-72
2023/11/21 16:43:58;;;;;;;5.75;4.40;;;;;;;;;;5826745;28;20045;-72
2023/11/21 16:46:56;;;;;;;8.13;4.07;;;;;;;;;;5842940;28;20056;-71
2023/11/21 16:49:48;;;;;;;7.43;4.13;;;;;;;;;;5829782;28;20049;-71
2023/11/21 16:52:41;;;;;;;9.10;4.63;;;;;;;;;;5821053;28;20050;-71
2023/11/21 16:55:32;;;;;;;9.05;5.97;;;;;;;;;;5832231;28;20057;-71
2023/11/21 16:58:23;;;;;;;6.25;4.38;;;;;;;;;;5830134;28;20045;-71
2023/11/21 17:01:13;;;;;;;5.25;3.42;;;;;;;;;;5817004;28;20409;-72
2023/11/21 17:04:05;;;;;;;10.52;4.10;;;;;;;;;;5820310;28;20524;-72
2023/11/21 17:06:56;;;;;;;3.35;2.83;;;;;;;;;;5830126;28;20455;-71
2023/11/21 17:09:46;;;;;;;6.15;4.70;;;;;;;;;;5827006;28;20046;-72
2023/11/21 17:12:37;;;;;;;9.65;4.57;;;;;;;;;;5819555;28;20042;-72
2023/11/21 17:15:28;;;;;;;9.95;4.90;;;;;;;;;;5826237;28;20045;-72
2023/11/21 17:18:19;;;;;;;4.30;3.90;;;;;;;;;;5841290;28;20053;-72
2023/11/21 17:21:10;;;;;;;8.50;4.32;;;;;;;;;;5841187;28;20066;-72